createdAt,value
2023-06-17T00:00:52.625Z,100769.25
2023-06-17T00:03:22.305Z,100772.84
2023-06-17T00:05:50.512Z,100763.97
2023-06-17T00:08:18.664Z,100760.13
2023-06-17T00:10:46.985Z,100766.69
2023-06-17T00:13:20.960Z,100757.38
2023-06-17T00:15:57.870Z,100758.66
2023-06-17T00:18:28.170Z,100750.84
2023-06-17T00:20:58.856Z,100754.25
2023-06-17T00:23:27.437Z,100765.47
2023-06-17T00:25:56.370Z,100754.72
2023-06-17T00:28:24.618Z,100759.59
2023-06-17T00:30:54.098Z,100751.81
2023-06-17T00:33:24.307Z,100749.13
2023-06-17T00:35:55.890Z,100758.38
2023-06-17T00:38:24.818Z,100748.25
2023-06-17T00:44:41.482Z,100754.59
2023-06-17T00:47:11.700Z,100747.50
2023-06-17T00:49:42.490Z,100756.78
2023-06-17T00:54:45.086Z,100742.66
2023-06-17T00:57:15.650Z,100745.81
2023-06-17T00:59:46.051Z,100759.09
2023-06-17T01:02:14.724Z,100758.03
2023-06-17T01:04:44.680Z,100756.38
2023-06-17T01:07:26.033Z,100756.38
2023-06-17T01:10:01.222Z,100752.56
2023-06-17T01:12:30.596Z,100753.41
2023-06-17T01:14:59.862Z,100754.03
2023-06-17T01:17:29.837Z,100744.56
2023-06-17T01:20:00.018Z,100753.81
2023-06-17T01:22:30.472Z,100746.47
2023-06-17T01:25:02.402Z,100748.34
2023-06-17T01:31:43.111Z,100738.63
2023-06-17T01:34:11.911Z,100744.75
2023-06-17T01:36:42.238Z,100743.72
2023-06-17T01:39:16.287Z,100747.50
2023-06-17T01:41:49.893Z,100746.03
2023-06-17T01:44:18.587Z,100750.66
2023-06-17T01:46:47.508Z,100748.78
2023-06-17T01:49:17.018Z,100762.25
2023-06-17T01:51:45.318Z,100758.44
2023-06-17T01:54:13.741Z,100755.38
2023-06-17T01:56:42.235Z,100756.16
2023-06-17T01:59:11.994Z,100749.38
2023-06-17T02:01:40.305Z,100748.44
2023-06-17T02:04:08.552Z,100751.94
2023-06-17T02:06:40.922Z,100749.63
2023-06-17T02:09:09.927Z,100752.75
2023-06-17T02:11:38.245Z,100751.69
2023-06-17T02:17:57.572Z,100752.53
2023-06-17T02:20:26.289Z,100749.13
2023-06-17T02:22:54.924Z,100746.38
2023-06-17T02:25:24.388Z,100743.88
2023-06-17T02:27:52.732Z,100739.22
2023-06-17T02:30:24.014Z,100736.28
2023-06-17T02:32:52.837Z,100737.50
2023-06-17T02:35:23.697Z,100735.94
2023-06-17T02:37:51.964Z,100738.25
2023-06-17T02:40:20.636Z,100734.41
2023-06-17T02:42:52.355Z,100741.56
2023-06-17T02:45:20.696Z,100738.25
2023-06-17T02:47:49.230Z,100732.38
2023-06-17T02:50:24.574Z,100720.97
2023-06-17T02:52:57.251Z,100727.72
2023-06-17T02:55:28.367Z,100729.75
2023-06-17T02:57:58.108Z,100722.09
2023-06-17T03:00:28.707Z,100714.03
2023-06-17T03:02:57.394Z,100716.38
2023-06-17T03:05:27.815Z,100716.50
2023-06-17T03:07:56.220Z,100722.13
2023-06-17T03:14:20.608Z,100711.91
2023-06-17T03:16:49.954Z,100714.59
2023-06-17T03:19:19.074Z,100712.63
2023-06-17T03:21:50.332Z,100707.16
2023-06-17T03:24:19.149Z,100704.53
2023-06-17T03:26:48.146Z,100705.38
2023-06-17T03:29:17.762Z,100702.59
2023-06-17T03:31:47.470Z,100703.75
2023-06-17T03:34:16.235Z,100709.28
2023-06-17T03:36:49.374Z,100713.53
2023-06-17T03:39:19.166Z,100705.34
2023-06-17T03:41:47.699Z,100719.09
2023-06-17T03:44:16.340Z,100708.72
2023-06-17T03:46:45.134Z,100710.97
2023-06-17T03:49:13.915Z,100705.59
2023-06-17T03:51:42.167Z,100699.72
2023-06-17T03:54:10.512Z,100706.22
2023-06-17T03:56:41.383Z,100716.19
2023-06-17T03:59:12.215Z,100705.34
2023-06-17T04:01:41.541Z,100704.94
2023-06-17T04:04:10.427Z,100713.72
2023-06-17T04:06:38.723Z,100696.34
2023-06-17T04:09:06.964Z,100700.63
2023-06-17T04:11:36.321Z,100701.38
2023-06-17T04:14:06.050Z,100690.91
2023-06-17T04:16:36.641Z,100685.94
2023-06-17T04:19:04.891Z,100690.16
2023-06-17T04:21:33.148Z,100689.78
2023-06-17T04:24:01.577Z,100684.75
2023-06-17T04:26:30.215Z,100685.28
2023-06-17T04:28:59.455Z,100674.34
2023-06-17T04:31:29.568Z,100680.84
2023-06-17T04:33:58.259Z,100687.38
2023-06-17T04:36:26.629Z,100681.81
2023-06-17T04:38:55.058Z,100683.31
2023-06-17T04:41:25.149Z,100682.13
2023-06-17T04:47:44.375Z,100682.75
2023-06-17T04:50:17.930Z,100677.53
2023-06-17T04:52:49.912Z,100676.16
2023-06-17T04:55:23.080Z,100675.56
2023-06-17T04:57:51.552Z,100680.88
2023-06-17T05:00:58.367Z,100670.63
2023-06-17T05:03:35.783Z,100674.66
2023-06-17T05:06:04.148Z,100677.97
2023-06-17T05:08:33.421Z,100686.91
2023-06-17T05:11:02.188Z,100678.53
2023-06-17T05:13:31.797Z,100693.41
2023-06-17T05:16:00.992Z,100684.19
2023-06-17T05:18:31.266Z,100675.31
2023-06-17T05:21:01.337Z,100684.97
2023-06-17T05:23:29.589Z,100689.88
2023-06-17T05:25:57.988Z,100686.63
2023-06-17T05:28:26.573Z,100681.78
2023-06-17T05:31:32.101Z,100686.03
2023-06-17T05:34:01.172Z,100697.19
2023-06-17T05:36:30.861Z,100698.13
2023-06-17T05:38:59.323Z,100687.03
2023-06-17T05:41:27.787Z,100690.31
2023-06-17T05:43:56.584Z,100690.81
2023-06-17T05:46:25.366Z,100690.97
2023-06-17T05:48:53.706Z,100689.16
2023-06-17T05:51:22.642Z,100688.47
2023-06-17T05:53:53.039Z,100696.25
2023-06-17T05:56:21.534Z,100684.66
2023-06-17T05:58:49.767Z,100686.06
2023-06-17T06:01:27.243Z,100689.34
2023-06-17T06:03:55.893Z,100682.06
2023-06-17T06:06:24.450Z,100693.69
2023-06-17T06:08:54.119Z,100694.72
2023-06-17T06:11:23.209Z,100696.06
2023-06-17T06:13:51.632Z,100693.44
2023-06-17T06:20:28.331Z,100694.59
2023-06-17T06:22:57.416Z,100687.94
2023-06-17T06:25:27.415Z,100690.22
2023-06-17T06:27:56.546Z,100685.94
2023-06-17T06:30:28.568Z,100699.72
2023-06-17T06:32:57.800Z,100699.69
2023-06-17T06:35:27.294Z,100706.28
2023-06-17T06:37:56.473Z,100699.91
2023-06-17T06:40:25.328Z,100706.09
2023-06-17T06:42:55.272Z,100707.56
2023-06-17T06:45:40.573Z,100703.03
2023-06-17T06:48:09.403Z,100697.97
2023-06-17T06:50:39.164Z,100697.53
2023-06-17T06:53:09.481Z,100699.63
2023-06-17T06:55:37.984Z,100698.38
2023-06-17T06:58:08.114Z,100701.59
2023-06-17T07:00:36.955Z,100698.66
2023-06-17T07:06:57.732Z,100702.41
2023-06-17T07:09:31.045Z,100699.25
2023-06-17T07:11:59.400Z,100705.47
2023-06-17T07:14:29.259Z,100706.34
2023-06-17T07:16:57.664Z,100707.16
2023-06-17T07:19:26.146Z,100712.28
2023-06-17T07:21:55.184Z,100710.75
2023-06-17T07:24:24.333Z,100712.63
2023-06-17T07:26:52.807Z,100712.41
2023-06-17T07:29:21.666Z,100716.97
2023-06-17T07:31:51.364Z,100704.56
2023-06-17T07:34:19.646Z,100715.53
2023-06-17T07:36:53.495Z,100711.41
2023-06-17T07:39:21.947Z,100713.88
2023-06-17T07:41:50.115Z,100703.38
2023-06-17T07:44:18.923Z,100716.09
2023-06-17T07:46:47.248Z,100711.38
2023-06-17T07:53:04.609Z,100707.06
2023-06-17T07:55:33.422Z,100706.81
2023-06-17T07:58:02.311Z,100713.19
2023-06-17T08:00:30.656Z,100705.50
2023-06-17T08:02:59.068Z,100709.63
2023-06-17T08:05:27.539Z,100714.63
2023-06-17T08:07:55.729Z,100708.00
2023-06-17T08:10:25.464Z,100696.31
2023-06-17T08:12:53.808Z,100697.41
2023-06-17T08:15:23.450Z,100704.34
2023-06-17T08:17:53.884Z,100700.22
2023-06-17T08:20:23.104Z,100706.06
2023-06-17T08:22:51.708Z,100707.72
2023-06-17T08:25:19.930Z,100701.91
2023-06-17T08:27:49.646Z,100700.22
2023-06-17T08:30:18.635Z,100701.31
2023-06-17T08:32:47.428Z,100694.63
2023-06-17T08:39:28.318Z,100696.88
2023-06-17T08:41:56.841Z,100699.91
2023-06-17T08:44:27.384Z,100696.88
2023-06-17T08:46:57.286Z,100690.16
2023-06-17T08:49:26.985Z,100698.53
2023-06-17T08:51:56.223Z,100686.59
2023-06-17T08:54:26.826Z,100695.19
2023-06-17T08:56:55.208Z,100692.22
2023-06-17T08:59:23.435Z,100689.56
2023-06-17T09:01:54.404Z,100695.75
2023-06-17T09:04:23.489Z,100687.41
2023-06-17T09:06:52.317Z,100697.41
2023-06-17T09:09:21.498Z,100691.75
2023-06-17T09:11:52.801Z,100685.81
2023-06-17T09:14:26.229Z,100680.03
2023-06-17T09:16:55.958Z,100676.19
2023-06-17T09:19:25.185Z,100681.44
2023-06-17T09:25:41.650Z,100675.06
2023-06-17T09:28:16.136Z,100674.75
2023-06-17T09:30:45.623Z,100673.38
2023-06-17T09:33:20.610Z,100673.03
2023-06-17T09:35:49.239Z,100669.28
2023-06-17T09:38:19.528Z,100673.16
2023-06-17T09:40:51.186Z,100673.25
2023-06-17T09:45:56.548Z,100669.16
2023-06-17T09:48:31.012Z,100665.00
2023-06-17T09:51:00.254Z,100666.81
2023-06-17T09:53:30.613Z,100672.13
2023-06-17T09:56:00.923Z,100677.00
2023-06-17T09:58:32.006Z,100670.41
2023-06-17T10:01:02.363Z,100669.09
2023-06-17T10:03:32.507Z,100654.13
2023-06-17T10:06:05.294Z,100674.75
2023-06-17T10:09:23.167Z,100664.94
2023-06-17T10:11:55.090Z,100668.13
2023-06-17T10:14:26.456Z,100654.94
2023-06-17T10:16:56.281Z,100651.41
2023-06-17T10:19:29.978Z,100659.50
2023-06-17T10:22:01.288Z,100658.53
2023-06-17T10:24:30.048Z,100652.81
2023-06-17T10:27:05.239Z,100653.13
2023-06-17T10:29:34.845Z,100651.78
2023-06-17T10:32:18.635Z,100644.91
2023-06-17T10:35:13.854Z,100648.66
2023-06-17T10:37:43.511Z,100653.25
2023-06-17T10:40:23.708Z,100652.38
2023-06-17T10:42:58.368Z,100637.22
2023-06-17T10:45:27.273Z,100657.81
2023-06-17T10:48:15.729Z,100645.06
2023-06-17T10:50:48.773Z,100639.09
2023-06-17T10:53:19.541Z,100635.47
2023-06-17T10:55:47.976Z,100633.50
2023-06-17T10:58:16.155Z,100631.41
2023-06-17T11:00:44.969Z,100635.41
2023-06-17T11:03:16.422Z,100642.97
2023-06-17T11:05:48.891Z,100639.91
2023-06-17T11:08:17.519Z,100632.72
2023-06-17T11:10:45.796Z,100627.84
2023-06-17T11:13:14.134Z,100639.94
2023-06-17T11:15:42.354Z,100640.28
2023-06-17T11:18:11.268Z,100639.13
2023-06-17T11:20:39.818Z,100634.81
2023-06-17T11:23:10.445Z,100634.78
2023-06-17T11:25:45.032Z,100627.44
2023-06-17T11:28:14.245Z,100632.09
2023-06-17T11:30:42.810Z,100629.81
2023-06-17T11:33:11.554Z,100628.91
2023-06-17T11:35:40.169Z,100622.78
2023-06-17T11:38:10.282Z,100624.66
2023-06-17T11:44:26.279Z,100623.78
2023-06-17T11:46:57.348Z,100627.09
2023-06-17T11:49:29.478Z,100621.28
2023-06-17T11:52:02.255Z,100621.06
2023-06-17T11:54:31.889Z,100618.59
2023-06-17T11:57:00.888Z,100618.53
2023-06-17T11:59:30.078Z,100614.63
2023-06-17T12:01:58.319Z,100611.09
2023-06-17T12:04:27.029Z,100610.50
2023-06-17T12:06:55.385Z,100607.66
2023-06-17T12:09:23.828Z,100598.88
2023-06-17T12:11:53.459Z,100602.50
2023-06-17T12:14:22.029Z,100602.31
2023-06-17T12:16:50.335Z,100601.81
2023-06-17T12:19:23.664Z,100600.41
2023-06-17T12:21:52.349Z,100591.22
2023-06-17T12:24:22.163Z,100592.56
2023-06-17T12:27:57.983Z,100605.75
2023-06-17T12:30:27.651Z,100598.91
2023-06-17T12:32:56.399Z,100582.19
2023-06-17T12:35:25.808Z,100583.88
2023-06-17T12:37:55.770Z,100583.81
2023-06-17T12:40:24.557Z,100575.03
2023-06-17T12:42:52.982Z,100582.84
2023-06-17T12:45:22.954Z,100580.16
2023-06-17T12:47:53.240Z,100575.66
2023-06-17T12:50:21.613Z,100575.41
2023-06-17T12:52:52.703Z,100573.44
2023-06-17T12:55:21.252Z,100567.66
2023-06-17T12:57:49.652Z,100562.03
2023-06-17T13:00:18.930Z,100557.00
2023-06-17T13:02:47.921Z,100560.44
2023-06-17T13:05:17.838Z,100561.00
2023-06-17T13:07:46.076Z,100559.38
2023-06-17T13:10:14.335Z,100556.63
2023-06-17T13:16:49.407Z,100554.53
2023-06-17T13:19:18.427Z,100548.16
2023-06-17T13:21:48.157Z,100552.44
2023-06-17T13:24:16.415Z,100552.75
2023-06-17T13:26:44.909Z,100546.78
2023-06-17T13:29:13.205Z,100550.28
2023-06-17T13:31:41.444Z,100540.22
2023-06-17T13:34:09.830Z,100541.44
2023-06-17T13:36:40.389Z,100540.22
2023-06-17T13:39:10.596Z,100548.13
2023-06-17T13:41:38.864Z,100541.09
2023-06-17T13:44:09.115Z,100537.66
2023-06-17T13:46:37.603Z,100532.97
2023-06-17T13:49:06.009Z,100527.97
2023-06-17T13:51:34.314Z,100533.75
2023-06-17T13:54:02.903Z,100540.34
2023-06-17T13:56:32.546Z,100528.53
2023-06-17T14:03:16.435Z,100536.59
2023-06-17T14:05:46.049Z,100544.06
2023-06-17T14:08:14.510Z,100535.38
2023-06-17T14:10:42.788Z,100532.41
2023-06-17T14:13:13.142Z,100536.94
2023-06-17T14:15:41.495Z,100534.34
2023-06-17T14:18:09.867Z,100528.44
2023-06-17T14:20:38.181Z,100530.66
2023-06-17T14:23:07.513Z,100526.81
2023-06-17T14:25:35.896Z,100523.06
2023-06-17T14:28:05.726Z,100524.28
2023-06-17T14:30:35.955Z,100526.78
2023-06-17T14:33:04.334Z,100522.38
2023-06-17T14:35:32.736Z,100517.63
2023-06-17T14:38:00.947Z,100518.13
2023-06-17T14:40:30.092Z,100521.56
2023-06-17T14:42:58.471Z,100524.75
2023-06-17T14:49:03.231Z,100508.78
2023-06-17T14:51:31.501Z,100515.31
2023-06-17T14:53:59.714Z,100516.69
2023-06-17T14:56:29.110Z,100510.97
2023-06-17T14:58:57.837Z,100512.06
2023-06-17T15:01:34.677Z,100506.56
2023-06-17T15:04:03.454Z,100511.78
2023-06-17T15:06:32.705Z,100509.66
2023-06-17T15:09:26.342Z,100512.19
2023-06-17T15:11:56.398Z,100499.31
2023-06-17T15:14:25.834Z,100505.50
2023-06-17T15:16:56.798Z,100506.06
2023-06-17T15:19:25.046Z,100506.34
2023-06-17T15:21:53.334Z,100508.59
2023-06-17T15:24:21.646Z,100503.34
2023-06-17T15:26:49.989Z,100512.41
2023-06-17T15:29:18.464Z,100505.19
2023-06-17T15:35:39.074Z,100503.84
2023-06-17T15:38:07.542Z,100504.72
2023-06-17T15:40:36.209Z,100509.47
2023-06-17T15:43:04.632Z,100501.16
2023-06-17T15:45:32.995Z,100507.81
2023-06-17T15:48:02.714Z,100508.97
2023-06-17T15:50:31.094Z,100506.56
2023-06-17T15:52:59.369Z,100514.00
2023-06-17T15:55:27.724Z,100510.94
2023-06-17T15:57:56.097Z,100504.72
2023-06-17T16:00:24.595Z,100510.69
2023-06-17T16:02:53.448Z,100512.06
2023-06-17T16:05:23.573Z,100502.78
2023-06-17T16:07:52.059Z,100479.06
2023-06-17T16:10:21.349Z,100503.19
2023-06-17T16:12:50.193Z,100512.22
2023-06-17T16:15:18.571Z,100502.25
2023-06-17T16:17:47.172Z,100505.25
2023-06-17T16:20:15.543Z,100500.53
2023-06-17T16:22:45.401Z,100502.28
2023-06-17T16:25:13.631Z,100501.25
2023-06-17T16:27:41.904Z,100489.56
2023-06-17T16:30:11.176Z,100496.19
2023-06-17T16:32:39.463Z,100497.22
2023-06-17T16:35:09.613Z,100494.34
2023-06-17T16:37:38.056Z,100502.00
2023-06-17T16:40:08.903Z,100496.00
2023-06-17T16:42:37.356Z,100491.00
2023-06-17T16:45:06.702Z,100498.66
2023-06-17T16:47:34.985Z,100500.78
2023-06-17T16:50:03.252Z,100501.28
2023-06-17T16:52:31.870Z,100500.91
2023-06-17T16:55:01.270Z,100496.59
2023-06-17T16:57:30.843Z,100496.78
2023-06-17T16:59:59.224Z,100494.84
2023-06-17T17:02:27.684Z,100493.78
2023-06-17T17:08:56.117Z,100498.25
2023-06-17T17:11:24.426Z,100488.00
2023-06-17T17:13:54.024Z,100502.00
2023-06-17T17:16:22.372Z,100493.50
2023-06-17T17:18:50.833Z,100490.25
2023-06-17T17:21:19.234Z,100497.19
2023-06-17T17:23:47.709Z,100489.50
2023-06-17T17:26:16.170Z,100487.25
2023-06-17T17:28:44.552Z,100491.22
2023-06-17T17:31:14.143Z,100495.63
2023-06-17T17:33:44.511Z,100491.97
2023-06-17T17:36:13.991Z,100488.53
2023-06-17T17:38:43.375Z,100495.63
2023-06-17T17:41:12.352Z,100492.63
2023-06-17T17:43:40.997Z,100498.97
2023-06-17T17:46:10.518Z,100495.94
2023-06-17T17:48:40.525Z,100493.31
2023-06-17T17:55:20.949Z,100502.06
2023-06-17T17:57:49.231Z,100507.38
2023-06-17T18:00:17.936Z,100503.69
2023-06-17T18:02:47.584Z,100501.19
2023-06-17T18:05:17.298Z,100506.44
2023-06-17T18:07:46.934Z,100506.50
2023-06-17T18:10:17.240Z,100499.56
2023-06-17T18:12:45.728Z,100506.28
2023-06-17T18:15:13.980Z,100504.91
2023-06-17T18:17:42.574Z,100511.38
2023-06-17T18:20:11.291Z,100504.03
2023-06-17T18:22:41.047Z,100510.31
2023-06-17T18:25:09.967Z,100508.81
2023-06-17T18:27:39.733Z,100503.44
2023-06-17T18:30:10.338Z,100513.91
2023-06-17T18:32:38.550Z,100507.84
2023-06-17T18:35:07.723Z,100513.09
2023-06-17T18:41:31.369Z,100506.28
2023-06-17T18:44:00.869Z,100523.00
2023-06-17T18:46:29.186Z,100521.13
2023-06-17T18:48:57.771Z,100516.94
2023-06-17T18:51:26.142Z,100516.69
2023-06-17T18:53:55.799Z,100518.38
2023-06-17T18:56:24.043Z,100524.88
2023-06-17T18:58:52.704Z,100525.63
2023-06-17T19:01:21.033Z,100524.38
2023-06-17T19:03:49.313Z,100530.31
2023-06-17T19:06:17.967Z,100537.88
2023-06-17T19:08:46.323Z,100532.34
2023-06-17T19:11:16.485Z,100534.59
2023-06-17T19:13:45.745Z,100530.78
2023-06-17T19:16:14.715Z,100535.84
2023-06-17T19:18:42.962Z,100531.59
2023-06-17T19:21:11.272Z,100540.28
2023-06-17T19:24:09.513Z,100540.63
2023-06-17T19:26:39.284Z,100540.94
2023-06-17T19:29:07.541Z,100538.69
2023-06-17T19:31:35.907Z,100543.72
2023-06-17T19:34:04.384Z,100544.84
2023-06-17T19:36:32.708Z,100549.88
2023-06-17T19:39:00.924Z,100542.38
2023-06-17T19:41:30.684Z,100549.28
2023-06-17T19:44:00.600Z,100552.06
2023-06-17T19:46:29.038Z,100552.59
2023-06-17T19:48:57.393Z,100558.09
2023-06-17T19:51:26.152Z,100553.06
2023-06-17T19:53:54.504Z,100553.59
2023-06-17T19:56:24.872Z,100553.31
2023-06-17T19:58:53.931Z,100559.31
2023-06-17T20:01:24.385Z,100561.34
2023-06-17T20:03:52.888Z,100565.63
2023-06-17T20:06:21.393Z,100574.88
2023-06-17T20:13:01.859Z,100573.31
2023-06-17T20:15:30.550Z,100572.81
2023-06-17T20:18:00.657Z,100579.09
2023-06-17T20:20:31.234Z,100570.97
2023-06-17T20:22:59.486Z,100574.72
2023-06-17T20:25:27.747Z,100572.94
2023-06-17T20:27:55.954Z,100570.63
2023-06-17T20:30:24.519Z,100574.94
2023-06-17T20:32:53.096Z,100568.75
2023-06-17T20:35:22.809Z,100574.22
2023-06-17T20:37:51.063Z,100574.94
2023-06-17T20:40:19.558Z,100575.81
2023-06-17T20:42:48.337Z,100578.06
2023-06-17T20:45:16.908Z,100574.56
2023-06-17T20:47:45.332Z,100580.28
2023-06-17T20:50:13.796Z,100576.78
2023-06-17T20:52:43.539Z,100581.09
2023-06-17T20:59:22.485Z,100581.09
2023-06-17T21:01:50.847Z,100577.16
2023-06-17T21:04:19.560Z,100589.25
2023-06-17T21:06:47.702Z,100584.09
2023-06-17T21:09:17.299Z,100583.34
2023-06-17T21:11:45.458Z,100583.88
2023-06-17T21:14:14.629Z,100582.72
2023-06-17T21:16:42.925Z,100587.81
2023-06-17T21:19:11.643Z,100590.94
2023-06-17T21:21:39.812Z,100595.41
2023-06-17T21:24:08.068Z,100588.56
2023-06-17T21:26:37.641Z,100592.72
2023-06-17T21:29:05.874Z,100595.59
2023-06-17T21:31:34.072Z,100591.09
2023-06-17T21:34:02.378Z,100593.16
2023-06-17T21:36:30.627Z,100590.47
2023-06-17T21:38:58.968Z,100592.16
2023-06-17T21:41:27.865Z,100594.31
2023-06-17T21:43:57.637Z,100586.34
2023-06-17T21:46:29.193Z,100586.84
2023-06-17T21:48:57.766Z,100576.69
2023-06-17T21:51:26.099Z,100581.28
2023-06-17T21:53:54.651Z,100579.94
2023-06-17T21:56:23.169Z,100584.25
2023-06-17T21:58:51.330Z,100592.31
2023-06-17T22:01:21.052Z,100592.59
2023-06-17T22:03:49.542Z,100594.13
2023-06-17T22:06:17.790Z,100602.94
2023-06-17T22:08:46.000Z,100595.03
2023-06-17T22:11:14.363Z,100587.63
2023-06-17T22:13:42.584Z,100593.25
2023-06-17T22:16:12.674Z,100607.72
2023-06-17T22:18:42.672Z,100595.59
2023-06-17T22:21:11.300Z,100595.84
2023-06-17T22:23:39.552Z,100595.16
2023-06-17T22:26:07.948Z,100593.81
2023-06-17T22:32:05.257Z,100585.06
2023-06-17T22:34:36.397Z,100591.97
2023-06-17T22:37:05.489Z,100600.16
2023-06-17T22:39:33.754Z,100600.03
2023-06-17T22:42:02.026Z,100599.19
2023-06-17T22:44:30.828Z,100594.50
2023-06-17T22:46:59.131Z,100592.84
2023-06-17T22:49:27.390Z,100598.09
2023-06-17T22:51:56.962Z,100599.66
2023-06-17T22:54:25.212Z,100601.56
2023-06-17T22:56:53.391Z,100609.22
2023-06-17T22:59:21.683Z,100615.38
2023-06-17T23:01:49.922Z,100607.97
2023-06-17T23:04:18.201Z,100612.22
2023-06-17T23:06:46.432Z,100607.06
2023-06-17T23:09:16.533Z,100606.50
2023-06-17T23:11:44.919Z,100603.91
2023-06-17T23:18:15.980Z,100605.78
2023-06-17T23:20:45.011Z,100604.09
2023-06-17T23:23:13.656Z,100601.22
2023-06-17T23:25:43.779Z,100607.66
2023-06-17T23:28:12.675Z,100600.06
2023-06-17T23:30:41.010Z,100596.66
2023-06-17T23:33:11.928Z,100601.69
2023-06-17T23:35:40.200Z,100590.28
2023-06-17T23:38:08.783Z,100587.53
2023-06-17T23:40:37.645Z,100587.47
2023-06-17T23:43:07.338Z,100590.94
2023-06-17T23:45:35.530Z,100591.44
2023-06-17T23:48:03.881Z,100590.28
2023-06-17T23:50:32.337Z,100589.16
2023-06-17T23:53:00.898Z,100589.41
2023-06-17T23:55:29.060Z,100586.81
2023-06-17T23:57:57.449Z,100590.78
